Terminal Aerodrome Forecast
Issued by NWS

Home | Current Version | Previous Version | Text Only | Print | Product List | Glossary On
Versions: 1 2 3 4 5 6 7 8 9 10 11 12 13 14 15 16
000
FTUS43 KIND 272325
TAFHUF
TAF
KHUF 272325Z 2800/2824 17011G19KT P6SM VCTS SCT040CB BKN150
     FM280100 17009KT P6SM VCTS SCT040CB BKN120
     FM280300 17007KT P6SM VCSH SCT040 BKN080
     FM281200 17007KT P6SM BKN100
     FM281600 18011G21KT P6SM BKN040=

USA.gov is the U.S. government's official web portal to all federal, state and local government web resources and services.